createdAt,value
2017-09-03T10:42:53.050Z,35.0
2017-09-03T10:43:54.440Z,33.7
2017-09-03T10:44:55.832Z,32.0
2017-09-03T10:45:57.233Z,34.3
2017-09-03T10:46:58.626Z,33.9
2017-09-03T10:48:00.030Z,33.2
2017-09-03T10:49:01.429Z,32.5
2017-09-03T10:50:02.815Z,31.3
2017-09-03T10:51:04.207Z,31.4
2017-09-03T10:52:05.602Z,30.3
2017-09-03T10:53:06.994Z,29.9
2017-09-03T10:54:08.393Z,29.7
2017-09-03T10:55:50.783Z,28.8
2017-09-03T10:56:52.175Z,30.3
2017-09-03T10:57:53.574Z,29.9
2017-09-03T10:58:54.987Z,27.8
2017-09-03T10:59:56.381Z,28.8
2017-09-03T11:00:57.776Z,29.2
2017-09-03T11:01:59.170Z,29.0
2017-09-03T11:03:00.562Z,28.9
2017-09-03T11:04:41.955Z,29.7
2017-09-03T11:05:43.352Z,29.9
2017-09-03T11:06:44.742Z,29.4
2017-09-03T11:07:46.137Z,28.9
2017-09-03T11:08:47.531Z,29.7
2017-09-03T11:09:48.925Z,29.7
2017-09-03T11:10:50.326Z,30.1
2017-09-03T11:11:51.721Z,29.2
2017-09-03T11:12:53.107Z,29.2
2017-09-03T11:13:54.506Z,30.8
2017-09-03T11:14:55.901Z,28.9
2017-09-03T11:15:57.293Z,27.8
2017-09-03T11:16:58.688Z,27.4
2017-09-03T11:18:00.085Z,26.3
2017-09-03T11:19:01.484Z,27.5
2017-09-03T11:20:02.876Z,25.6
2017-09-03T11:21:04.269Z,25.1
2017-09-03T11:22:05.663Z,24.8
2017-09-03T11:23:07.056Z,24.2
2017-09-03T11:24:08.453Z,25.1
2017-09-03T11:25:09.859Z,25.7
2017-09-03T11:26:11.255Z,24.3
2017-09-03T11:27:12.649Z,25.1
2017-09-03T11:28:14.044Z,26.3
2017-09-03T11:29:15.454Z,26.5
2017-09-03T11:30:16.851Z,26.4
2017-09-03T11:31:18.246Z,27.6
2017-09-03T11:32:19.663Z,26.6
2017-09-03T11:33:21.098Z,25.8
2017-09-03T11:34:22.494Z,25.8
2017-09-03T11:35:23.886Z,25.5
2017-09-03T11:37:05.285Z,25.9
2017-09-03T11:38:06.678Z,25.5
2017-09-03T11:39:08.068Z,25.6
2017-09-03T11:40:09.485Z,26.4
2017-09-03T11:41:10.879Z,25.8
2017-09-03T11:42:12.283Z,26.1
2017-09-03T11:43:13.688Z,28.4
2017-09-03T11:44:15.081Z,28.6
2017-09-03T11:45:16.473Z,28.7
2017-09-03T11:46:17.856Z,29.1
2017-09-03T11:47:19.263Z,29.0
2017-09-03T11:48:20.659Z,30.0
2017-09-03T11:49:22.052Z,30.3
2017-09-03T11:50:23.447Z,28.7
2017-09-03T11:51:24.844Z,28.4
2017-09-03T11:52:26.234Z,29.1
2017-09-03T11:53:27.624Z,28.3
2017-09-03T11:54:29.035Z,27.1
2017-09-03T11:55:30.422Z,28.0
2017-09-03T11:56:31.826Z,28.5
2017-09-03T11:57:33.218Z,28.7
2017-09-03T11:58:34.622Z,28.3
2017-09-03T11:59:36.017Z,28.9
2017-09-03T12:00:37.406Z,27.5
2017-09-03T12:01:38.805Z,25.9
2017-09-03T12:02:40.203Z,24.8
2017-09-03T12:03:41.597Z,26.2
2017-09-03T12:04:42.991Z,26.5
2017-09-03T12:05:44.382Z,27.7
2017-09-03T12:06:45.780Z,27.8
2017-09-03T12:07:47.177Z,28.0
2017-09-03T12:09:29.583Z,30.0
2017-09-03T12:10:30.985Z,29.8
2017-09-03T12:11:32.367Z,30.6
2017-09-03T12:12:33.758Z,28.9
2017-09-03T12:13:35.156Z,29.1
2017-09-03T12:14:36.544Z,28.3
2017-09-03T12:15:37.944Z,30.2
2017-09-03T12:16:39.332Z,24.9
2017-09-03T12:17:40.733Z,23.7
2017-09-03T12:18:42.125Z,25.0
2017-09-03T12:19:43.515Z,25.3
2017-09-03T12:20:44.951Z,26.2
2017-09-03T12:21:46.345Z,26.1
2017-09-03T12:22:47.739Z,25.9
2017-09-03T12:23:49.157Z,24.9
2017-09-03T12:24:50.583Z,24.9
2017-09-03T12:25:51.976Z,25.9
2017-09-03T12:26:53.387Z,23.5
2017-09-03T12:27:54.781Z,22.5
2017-09-03T12:28:56.178Z,21.4
2017-09-03T12:29:57.583Z,22.0
2017-09-03T12:30:58.977Z,23.6
2017-09-03T12:32:00.451Z,23.6
2017-09-03T12:33:01.849Z,23.8
2017-09-03T12:34:03.244Z,23.7
2017-09-03T12:35:04.677Z,22.5
2017-09-03T12:36:06.041Z,22.7
2017-09-03T12:37:07.473Z,22.5
2017-09-03T12:38:08.873Z,22.5
2017-09-03T12:39:10.291Z,23.9
2017-09-03T12:40:11.690Z,24.5
2017-09-03T12:41:13.090Z,24.0
2017-09-03T12:42:14.487Z,22.7
2017-09-03T12:43:15.888Z,23.5
2017-09-03T12:44:17.293Z,23.7
2017-09-03T12:45:18.691Z,21.3
2017-09-03T12:46:20.093Z,20.9
2017-09-03T12:48:02.484Z,21.0
2017-09-03T12:49:03.877Z,21.7
2017-09-03T12:50:05.276Z,21.1
2017-09-03T12:51:06.669Z,21.3
2017-09-03T12:52:08.065Z,21.6
2017-09-03T12:53:09.467Z,22.1
2017-09-03T12:54:10.865Z,20.8
2017-09-03T12:55:12.263Z,21.2
2017-09-03T12:56:13.664Z,19.7
2017-09-03T12:57:15.063Z,19.8
2017-09-03T12:58:16.460Z,20.2
2017-09-03T12:59:17.860Z,19.9
2017-09-03T13:00:19.254Z,20.6
2017-09-03T13:01:20.661Z,19.1
2017-09-03T13:02:22.062Z,19.3
2017-09-03T13:04:04.458Z,19.8
2017-09-03T13:05:05.855Z,19.6
2017-09-03T13:06:07.253Z,19.1
2017-09-03T13:07:08.668Z,19.2
2017-09-03T13:08:10.079Z,19.9
2017-09-03T13:09:11.480Z,21.2
2017-09-03T13:10:12.879Z,20.4
2017-09-03T13:11:14.279Z,21.4
2017-09-03T13:12:15.676Z,21.2
2017-09-03T13:13:17.073Z,21.2
2017-09-03T13:14:18.466Z,19.4
2017-09-03T13:15:19.871Z,19.1
2017-09-03T13:16:21.273Z,19.4
2017-09-03T13:17:22.676Z,20.1
2017-09-03T13:18:24.076Z,19.9
2017-09-03T13:19:25.470Z,20.5
2017-09-03T13:20:26.869Z,19.9
2017-09-03T13:21:28.267Z,20.5
2017-09-03T13:22:29.672Z,21.4
2017-09-03T13:23:31.063Z,21.2
2017-09-03T13:24:32.463Z,18.6
2017-09-03T13:25:33.863Z,19.2
2017-09-03T13:26:35.286Z,19.7
2017-09-03T13:27:36.683Z,20.2
2017-09-03T13:28:38.127Z,21.0
2017-09-03T13:29:39.549Z,21.4
2017-09-03T13:30:41.015Z,20.7
2017-09-03T13:31:42.413Z,19.0
2017-09-03T13:32:43.808Z,19.1
2017-09-03T13:33:45.239Z,20.1
2017-09-03T13:34:46.629Z,21.0
2017-09-03T13:35:48.106Z,20.5
2017-09-03T13:36:49.518Z,20.4
2017-09-03T13:37:50.924Z,20.0
2017-09-03T13:38:52.323Z,19.5
2017-09-03T13:39:53.728Z,20.9
2017-09-03T13:40:55.119Z,20.5
2017-09-03T13:41:56.519Z,20.4
2017-09-03T13:42:57.919Z,19.9
2017-09-03T13:43:59.317Z,19.4
2017-09-03T13:45:00.725Z,19.7
2017-09-03T13:46:02.126Z,21.0
2017-09-03T13:47:03.526Z,21.4
2017-09-03T13:48:04.941Z,20.6
2017-09-03T13:49:06.331Z,21.2
2017-09-03T13:50:07.723Z,21.3
2017-09-03T13:51:09.124Z,22.5
2017-09-03T13:52:10.521Z,22.9
2017-09-03T13:53:11.919Z,23.5
2017-09-03T13:54:13.317Z,23.7
2017-09-03T13:55:14.710Z,25.0
2017-09-03T13:56:16.106Z,24.9
2017-09-03T13:57:17.510Z,25.6
2017-09-03T13:58:18.907Z,25.7
2017-09-03T13:59:20.308Z,26.6
2017-09-03T14:00:21.704Z,27.5
2017-09-03T14:01:23.109Z,27.2
2017-09-03T14:02:24.500Z,26.5
2017-09-03T14:03:25.921Z,27.2
2017-09-03T14:04:27.319Z,26.9
2017-09-03T14:05:28.712Z,26.6
2017-09-03T14:06:30.113Z,25.9
2017-09-03T14:07:31.529Z,25.9
2017-09-03T14:09:12.914Z,26.6
2017-09-03T14:10:14.315Z,26.8
2017-09-03T14:11:36.317Z,27.2
2017-09-03T14:12:37.706Z,27.5
2017-09-03T14:14:00.740Z,28.3
2017-09-03T14:15:02.138Z,28.9
2017-09-03T14:16:03.522Z,29.7
2017-09-03T14:17:04.924Z,30.1
2017-09-03T14:18:06.314Z,30.0
2017-09-03T14:19:07.707Z,30.7
2017-09-03T14:20:09.096Z,31.0
2017-09-03T14:21:10.497Z,30.3
2017-09-03T14:22:11.885Z,31.2
2017-09-03T14:23:13.274Z,29.6
2017-09-03T14:24:55.662Z,30.3
2017-09-03T14:25:57.041Z,31.0
2017-09-03T14:26:58.442Z,31.4
2017-09-03T14:27:59.829Z,31.5
2017-09-03T14:29:01.221Z,31.3
2017-09-03T14:30:02.609Z,32.3
2017-09-03T14:31:04.113Z,33.2
2017-09-03T14:32:05.834Z,33.7
2017-09-03T14:33:07.276Z,33.8
2017-09-03T14:34:08.709Z,33.6
2017-09-03T14:35:10.105Z,33.3
2017-09-03T14:36:11.503Z,33.7
2017-09-03T14:37:12.924Z,34.1
2017-09-03T14:38:14.327Z,33.7
2017-09-03T14:39:15.784Z,33.4
2017-09-03T14:40:58.153Z,32.8
2017-09-03T14:41:59.538Z,33.7
2017-09-03T14:43:00.929Z,33.9
2017-09-03T14:44:02.310Z,34.1
2017-09-03T14:45:03.951Z,35.1
2017-09-03T14:46:05.340Z,35.0
2017-09-03T14:47:06.729Z,35.1
2017-09-03T14:48:08.151Z,36.0
2017-09-03T14:49:09.580Z,36.3
2017-09-03T14:50:11.031Z,33.8
2017-09-03T14:51:12.419Z,32.7
2017-09-03T14:52:13.821Z,33.3
2017-09-03T14:53:15.206Z,31.6
2017-09-03T14:54:16.596Z,33.2
2017-09-03T14:55:17.993Z,33.0
2017-09-03T14:56:19.381Z,31.2
2017-09-03T14:57:20.832Z,30.4
2017-09-03T14:58:22.288Z,30.6
2017-09-03T14:59:23.756Z,29.8
2017-09-03T15:00:25.160Z,29.7
2017-09-03T15:01:26.569Z,30.7
2017-09-03T15:02:28.011Z,29.9
2017-09-03T15:03:29.398Z,29.9
2017-09-03T15:04:30.806Z,29.8
2017-09-03T15:05:32.197Z,29.2
2017-09-03T15:06:33.585Z,30.0
2017-09-03T15:07:34.982Z,30.2
2017-09-03T15:08:36.374Z,31.1
2017-09-03T15:09:37.790Z,30.4
2017-09-03T15:10:39.200Z,30.0
2017-09-03T15:11:40.590Z,30.5
2017-09-03T15:13:22.978Z,30.6
2017-09-03T15:14:24.375Z,30.9
2017-09-03T15:15:25.773Z,32.1
2017-09-03T15:16:27.158Z,33.4
2017-09-03T15:17:28.542Z,32.8
2017-09-03T15:18:29.931Z,32.5
2017-09-03T15:19:31.329Z,32.2
2017-09-03T15:20:32.710Z,33.3
2017-09-03T15:21:34.099Z,34.5
2017-09-03T15:22:35.490Z,34.5
2017-09-03T15:23:36.876Z,34.4
2017-09-03T15:24:38.261Z,35.4
2017-09-03T15:25:39.645Z,36.1
2017-09-03T15:26:41.037Z,37.7
2017-09-03T15:27:42.425Z,36.9
2017-09-03T15:29:24.810Z,35.3
2017-09-03T15:30:26.228Z,37.9
2017-09-03T15:31:27.623Z,36.9
2017-09-03T15:32:29.013Z,37.4
2017-09-03T15:33:30.392Z,35.3
2017-09-03T15:34:31.794Z,35.4
2017-09-03T15:35:33.261Z,35.3
2017-09-03T15:36:35.099Z,34.4
2017-09-03T15:37:36.528Z,33.8
2017-09-03T15:38:37.916Z,33.9
2017-09-03T15:39:39.323Z,33.7
2017-09-03T15:40:40.796Z,32.8
2017-09-03T15:41:42.192Z,33.7
2017-09-03T15:42:43.577Z,34.0
2017-09-03T15:43:44.957Z,35.4
2017-09-03T15:45:27.348Z,33.6
2017-09-03T15:46:28.738Z,34.4
2017-09-03T15:47:30.125Z,34.3
2017-09-03T15:48:31.508Z,33.7
2017-09-03T15:49:32.891Z,34.0
2017-09-03T15:50:34.311Z,34.2
2017-09-03T15:51:35.729Z,34.5
2017-09-03T15:52:37.119Z,34.2
2017-09-03T15:53:38.510Z,35.6
2017-09-03T15:54:39.916Z,35.5
2017-09-03T15:55:41.316Z,35.1
2017-09-03T15:56:42.762Z,35.1
2017-09-03T15:57:44.141Z,35.3
2017-09-03T15:58:45.715Z,35.3
2017-09-03T15:59:47.107Z,35.8
2017-09-03T16:00:48.520Z,36.4
2017-09-03T16:01:49.942Z,36.5
2017-09-03T16:02:51.391Z,38.2
2017-09-03T16:03:52.774Z,38.6
2017-09-03T16:04:54.158Z,38.3
2017-09-03T16:05:55.660Z,38.4
2017-09-03T16:06:57.088Z,37.8
2017-09-03T16:07:58.520Z,38.4
2017-09-03T16:08:59.911Z,38.6
2017-09-03T16:10:01.352Z,37.8
2017-09-03T16:11:02.817Z,39.9
2017-09-03T16:12:04.242Z,38.9
2017-09-03T16:13:05.659Z,38.1
2017-09-03T16:14:07.099Z,38.6
2017-09-03T16:15:08.493Z,39.0
2017-09-03T16:16:09.967Z,39.8
2017-09-03T16:17:11.374Z,41.2
2017-09-03T16:18:12.754Z,41.2
2017-09-03T16:19:14.227Z,40.9
2017-09-03T16:20:15.623Z,43.1
2017-09-03T16:21:17.008Z,42.7
2017-09-03T16:22:18.483Z,41.9
2017-09-03T16:23:19.873Z,42.9
2017-09-03T16:24:21.336Z,41.1
2017-09-03T16:25:22.708Z,41.9
2017-09-03T16:26:24.095Z,43.0
2017-09-03T16:27:25.488Z,42.2
2017-09-03T16:28:26.873Z,42.1
2017-09-03T16:29:28.253Z,41.8
2017-09-03T16:30:29.636Z,40.8
2017-09-03T16:31:31.020Z,41.3
2017-09-03T16:32:32.402Z,43.0
2017-09-03T16:33:33.786Z,42.1
2017-09-03T16:34:35.170Z,42.7
2017-09-03T16:35:36.560Z,41.0
2017-09-03T16:36:38.002Z,39.6
2017-09-03T16:37:39.387Z,40.4
2017-09-03T16:38:40.800Z,41.2
2017-09-03T16:39:42.185Z,42.2
2017-09-03T16:40:43.584Z,41.1
2017-09-03T16:41:45.021Z,41.8
2017-09-03T16:42:46.453Z,41.4
2017-09-03T16:43:47.836Z,41.1
2017-09-03T16:44:49.229Z,41.7
2017-09-03T16:45:50.738Z,42.9
2017-09-03T16:46:52.111Z,42.6
2017-09-03T16:47:53.496Z,43.2
2017-09-03T16:48:54.932Z,42.7
2017-09-03T16:49:56.333Z,42.6
2017-09-03T16:50:57.838Z,42.5
2017-09-03T16:51:59.289Z,42.6
2017-09-03T16:53:00.689Z,44.1
2017-09-03T16:54:02.094Z,44.4
2017-09-03T16:55:03.491Z,43.7
2017-09-03T16:56:04.879Z,44.0
2017-09-03T16:57:06.318Z,43.2
2017-09-03T16:58:07.701Z,43.4
2017-09-03T16:59:09.085Z,43.0
2017-09-03T17:00:10.517Z,43.9
2017-09-03T17:01:11.906Z,44.0
2017-09-03T17:02:13.287Z,44.1
2017-09-03T17:03:14.671Z,44.1
2017-09-03T17:04:16.117Z,45.5
2017-09-03T17:05:58.559Z,46.1
2017-09-03T17:06:59.945Z,45.1
2017-09-03T17:08:01.344Z,45.0
2017-09-03T17:09:02.729Z,46.1
2017-09-03T17:10:04.117Z,46.5
2017-09-03T17:11:05.494Z,48.7
2017-09-03T17:12:06.874Z,47.2
2017-09-03T17:13:08.257Z,48.4
2017-09-03T17:14:09.644Z,48.4
2017-09-03T17:15:11.078Z,47.0
2017-09-03T17:16:12.460Z,48.4
2017-09-03T17:17:13.842Z,49.4
2017-09-03T17:18:15.222Z,49.2
2017-09-03T17:19:16.618Z,49.0
2017-09-03T17:20:18.002Z,49.1
2017-09-03T17:21:19.379Z,49.3
2017-09-03T17:22:20.772Z,49.5
2017-09-03T17:23:22.150Z,50.4
2017-09-03T17:24:23.545Z,50.7
2017-09-03T17:25:24.976Z,51.4
2017-09-03T17:26:26.464Z,50.2
2017-09-03T17:27:27.833Z,50.3
2017-09-03T17:28:29.255Z,49.7
2017-09-03T17:29:30.734Z,51.1
2017-09-03T17:30:32.133Z,51.2
2017-09-03T17:31:33.563Z,51.3
2017-09-03T17:32:34.969Z,52.4
2017-09-03T17:33:36.441Z,52.1
2017-09-03T17:34:37.895Z,52.3
2017-09-03T17:35:39.341Z,52.5
2017-09-03T17:36:40.787Z,52.9
2017-09-03T17:38:22.171Z,53.2
2017-09-03T17:39:23.550Z,53.3
2017-09-03T17:40:24.924Z,53.7
2017-09-03T17:41:26.353Z,53.4
2017-09-03T17:42:27.730Z,54.0
2017-09-03T17:43:29.111Z,54.7
2017-09-03T17:44:30.499Z,55.5
2017-09-03T17:45:31.877Z,56.3
2017-09-03T17:46:33.255Z,56.2
2017-09-03T17:47:34.638Z,57.0
2017-09-03T17:48:36.042Z,57.1
2017-09-03T17:49:37.425Z,56.7
2017-09-03T17:50:38.888Z,56.9
2017-09-03T17:51:40.302Z,57.2
2017-09-03T17:52:41.675Z,57.7
2017-09-03T17:54:24.040Z,58.4
2017-09-03T17:55:25.435Z,58.8
2017-09-03T17:56:26.816Z,58.5
2017-09-03T17:57:28.192Z,58.7
2017-09-03T17:58:29.571Z,59.1
2017-09-03T17:59:30.958Z,60.3
2017-09-03T18:00:32.332Z,60.4
2017-09-03T18:01:33.720Z,60.7
2017-09-03T18:02:35.095Z,60.4
2017-09-03T18:03:36.500Z,60.6
2017-09-03T18:04:37.858Z,61.4
2017-09-03T18:05:39.234Z,61.0
2017-09-03T18:06:40.607Z,61.7
2017-09-03T18:07:41.998Z,61.6
2017-09-03T18:08:43.375Z,61.5
2017-09-03T18:09:44.748Z,62.3
2017-09-03T18:10:46.137Z,62.3
2017-09-03T18:11:47.519Z,62.2
2017-09-03T18:12:48.905Z,62.8
2017-09-03T18:13:50.271Z,62.7
2017-09-03T18:14:51.656Z,62.9
2017-09-03T18:15:53.032Z,62.6
2017-09-03T18:16:54.418Z,62.9
2017-09-03T18:17:55.784Z,62.5
2017-09-03T18:18:57.161Z,62.7
2017-09-03T18:19:58.527Z,62.6
2017-09-03T18:20:59.914Z,62.3
2017-09-03T18:22:01.432Z,62.4
2017-09-03T18:23:03.425Z,62.7
2017-09-03T18:24:05.024Z,62.6
2017-09-03T18:25:06.788Z,63.0
2017-09-03T18:26:49.234Z,63.3
2017-09-03T18:27:50.594Z,63.8
2017-09-03T18:28:51.963Z,63.3
2017-09-03T18:29:53.374Z,63.6
2017-09-03T18:30:54.746Z,63.3
2017-09-03T18:31:56.425Z,63.6
2017-09-03T18:32:57.849Z,63.4
2017-09-03T18:33:59.325Z,63.6
2017-09-03T18:35:00.689Z,63.8
2017-09-03T18:36:02.061Z,64.6
2017-09-03T18:37:03.445Z,64.4
2017-09-03T18:38:04.815Z,64.6
2017-09-03T18:39:06.237Z,65.1
2017-09-03T18:40:07.617Z,64.8
2017-09-03T18:41:08.988Z,65.1
2017-09-03T18:42:10.362Z,65.3
2017-09-03T18:43:11.735Z,65.5
2017-09-03T18:44:13.116Z,65.8
2017-09-03T18:45:14.490Z,66.3
2017-09-03T18:46:15.884Z,66.6
2017-09-03T18:47:17.258Z,66.7
2017-09-03T18:48:18.633Z,66.8
2017-09-03T18:49:20.017Z,66.8
2017-09-03T18:50:21.405Z,66.9
2017-09-03T18:51:22.776Z,67.3
2017-09-03T18:52:24.150Z,67.3
2017-09-03T18:53:25.522Z,67.4
2017-09-03T18:54:27.023Z,67.2
2017-09-03T18:55:28.525Z,67.2
2017-09-03T18:56:29.897Z,67.7
2017-09-03T18:57:31.280Z,67.6
2017-09-03T18:59:13.640Z,68.2
2017-09-03T19:00:15.010Z,68.9
2017-09-03T19:01:16.387Z,68.8
2017-09-03T19:02:17.764Z,68.8
2017-09-03T19:03:19.133Z,68.7
2017-09-03T19:04:20.505Z,69.0
2017-09-03T19:05:21.878Z,69.2
2017-09-03T19:06:23.252Z,68.7
2017-09-03T19:07:24.618Z,69.0
2017-09-03T19:08:25.996Z,68.8
2017-09-03T19:09:27.400Z,69.0
2017-09-03T19:10:28.765Z,69.9
2017-09-03T19:11:30.222Z,69.8
2017-09-03T19:12:31.605Z,69.7
2017-09-03T19:13:32.998Z,69.5
2017-09-03T19:15:15.445Z,69.6
2017-09-03T19:16:16.805Z,69.3
2017-09-03T19:17:18.220Z,70.3
2017-09-03T19:18:19.594Z,70.8
2017-09-03T19:19:20.976Z,70.4
2017-09-03T19:20:22.341Z,70.4
2017-09-03T19:21:23.713Z,70.7
2017-09-03T19:22:25.088Z,70.8
2017-09-03T19:23:26.470Z,71.4
2017-09-03T19:24:28.016Z,71.3
2017-09-03T19:25:29.538Z,71.0
2017-09-03T19:26:30.928Z,71.8
2017-09-03T19:27:32.344Z,71.4
2017-09-03T19:28:33.731Z,72.0
2017-09-03T19:29:35.103Z,71.5
2017-09-03T19:31:17.458Z,71.6
2017-09-03T19:32:18.830Z,71.3
2017-09-03T19:33:20.201Z,71.4
2017-09-03T19:34:21.578Z,71.6
2017-09-03T19:35:22.949Z,71.9
2017-09-03T19:36:24.319Z,71.9
2017-09-03T19:37:25.693Z,71.7
2017-09-03T19:38:27.084Z,71.3
2017-09-03T19:39:28.454Z,71.5
2017-09-03T19:40:29.823Z,71.5
2017-09-03T19:41:31.193Z,71.6
2017-09-03T19:42:32.570Z,71.4
2017-09-03T19:43:33.949Z,72.3
2017-09-03T19:44:35.321Z,72.2
2017-09-03T19:45:36.694Z,72.7
2017-09-03T19:46:38.060Z,72.5
2017-09-03T19:47:39.438Z,72.4
2017-09-03T19:48:40.811Z,71.8
2017-09-03T19:49:42.189Z,71.5
2017-09-03T19:50:43.776Z,71.9
2017-09-03T19:51:45.198Z,72.5
2017-09-03T19:52:46.783Z,72.3
2017-09-03T19:53:48.144Z,72.5
2017-09-03T19:54:49.512Z,72.7
2017-09-03T19:55:51.124Z,72.0
2017-09-03T19:56:52.561Z,72.5
2017-09-03T19:57:53.977Z,72.7
2017-09-03T19:58:55.351Z,72.7
2017-09-03T19:59:56.846Z,71.6
2017-09-03T20:00:58.243Z,71.5
2017-09-03T20:01:59.623Z,71.7
2017-09-03T20:03:01.006Z,71.8
2017-09-03T20:04:02.383Z,71.7
2017-09-03T20:05:03.755Z,72.8
2017-09-03T20:06:05.133Z,72.3
2017-09-03T20:07:06.556Z,71.5
2017-09-03T20:08:07.967Z,71.7
2017-09-03T20:09:09.349Z,72.2
2017-09-03T20:10:10.749Z,71.9
2017-09-03T20:11:12.183Z,71.6
2017-09-03T20:12:13.603Z,72.4
2017-09-03T20:13:15.016Z,72.6
2017-09-03T20:14:16.461Z,72.5
2017-09-03T20:15:17.884Z,73.0
2017-09-03T20:16:19.247Z,72.3
2017-09-03T20:17:20.782Z,72.6
2017-09-03T20:19:02.136Z,72.9
2017-09-03T20:20:03.509Z,73.0
2017-09-03T20:21:04.888Z,73.0
2017-09-03T20:22:06.319Z,73.5
2017-09-03T20:23:07.699Z,72.6
2017-09-03T20:24:09.075Z,73.0
2017-09-03T20:25:10.475Z,73.5
2017-09-03T20:26:12.281Z,73.2
2017-09-03T20:27:13.754Z,73.5
2017-09-03T20:28:15.394Z,73.2
2017-09-03T20:29:17.139Z,73.7
2017-09-03T20:30:18.540Z,73.1
2017-09-03T20:31:20.068Z,73.0
2017-09-03T20:32:21.510Z,72.7
2017-09-03T20:33:23.043Z,72.7
2017-09-03T20:34:24.491Z,72.8
2017-09-03T20:36:05.833Z,73.4
2017-09-03T20:37:07.355Z,74.0
2017-09-03T20:38:30.334Z,74.0
2017-09-03T20:39:31.762Z,74.7
2017-09-03T20:40:33.127Z,73.9
2017-09-03T20:41:34.498Z,74.2
2017-09-03T20:42:35.870Z,74.3
2017-09-03T20:43:37.497Z,74.2
2017-09-03T20:44:38.874Z,74.2
2017-09-03T20:45:40.328Z,74.0
2017-09-03T20:46:41.684Z,74.4
2017-09-03T20:47:43.057Z,74.3
2017-09-03T20:48:44.520Z,74.3
2017-09-03T20:49:45.907Z,74.0
2017-09-03T20:50:47.285Z,73.7
2017-09-03T20:51:48.740Z,73.7
2017-09-03T20:52:50.110Z,73.9
2017-09-03T20:53:51.594Z,73.9
2017-09-03T20:54:52.972Z,74.0
2017-09-03T20:55:54.347Z,73.9
2017-09-03T20:56:55.733Z,73.8
2017-09-03T20:57:57.103Z,73.3
2017-09-03T20:58:58.479Z,74.0
2017-09-03T20:59:59.851Z,73.8
2017-09-03T21:01:01.253Z,74.0
2017-09-03T21:02:02.613Z,74.1
2017-09-03T21:03:03.984Z,74.5
2017-09-03T21:04:05.360Z,74.4
2017-09-03T21:05:06.736Z,74.1
2017-09-03T21:06:08.107Z,74.4
2017-09-03T21:07:09.482Z,74.5
2017-09-03T21:08:11.188Z,74.8
2017-09-03T21:09:12.898Z,74.5
2017-09-03T21:10:14.555Z,74.6
2017-09-03T21:11:16.190Z,74.6
2017-09-03T21:12:17.877Z,74.7
2017-09-03T21:13:19.852Z,74.7
2017-09-03T21:14:21.485Z,74.1
2017-09-03T21:15:22.860Z,74.1
2017-09-03T21:16:24.371Z,74.0
2017-09-03T21:17:25.790Z,74.4
2017-09-03T21:18:27.729Z,74.0
2017-09-03T21:19:29.164Z,74.1
2017-09-03T21:20:30.676Z,74.2
2017-09-03T21:21:32.073Z,74.1
2017-09-03T21:22:33.461Z,74.1
2017-09-03T21:24:15.813Z,73.9
2017-09-03T21:25:17.187Z,73.4
2017-09-03T21:26:18.560Z,73.2
2017-09-03T21:27:19.931Z,73.4
2017-09-03T21:28:21.320Z,73.9
2017-09-03T21:29:22.712Z,73.2
2017-09-03T21:30:24.084Z,73.4
2017-09-03T21:31:25.454Z,73.3
2017-09-03T21:32:26.823Z,73.4
2017-09-03T21:33:28.202Z,73.6
2017-09-03T21:34:29.573Z,73.4
2017-09-03T21:35:30.944Z,73.5
2017-09-03T21:36:32.334Z,73.4
2017-09-03T21:37:33.705Z,73.8
2017-09-03T21:38:35.085Z,74.2
2017-09-03T21:40:17.454Z,74.1
2017-09-03T21:41:18.827Z,74.0
2017-09-03T21:42:20.201Z,73.9
2017-09-03T21:43:21.591Z,74.2
2017-09-03T21:44:22.954Z,73.8
2017-09-03T21:45:24.346Z,74.2
2017-09-03T21:46:25.715Z,74.1
2017-09-03T21:47:27.104Z,74.3
2017-09-03T21:48:28.477Z,74.2
2017-09-03T21:49:29.846Z,74.6
2017-09-03T21:50:31.289Z,74.8
2017-09-03T21:51:32.658Z,75.2
2017-09-03T21:52:34.051Z,75.4
2017-09-03T21:53:35.423Z,75.6
2017-09-03T21:54:36.796Z,76.2
2017-09-03T21:55:38.168Z,76.8
2017-09-03T21:56:39.537Z,76.6
2017-09-03T21:57:40.926Z,76.4
2017-09-03T21:58:42.931Z,76.4
2017-09-03T21:59:44.343Z,76.7
2017-09-03T22:00:45.760Z,76.8
2017-09-03T22:01:47.249Z,76.8
2017-09-03T22:02:48.704Z,76.8
2017-09-03T22:03:50.084Z,76.8
2017-09-03T22:04:51.485Z,76.6
2017-09-03T22:05:52.925Z,76.7
2017-09-03T22:06:54.299Z,76.6
2017-09-03T22:07:55.736Z,77.1
2017-09-03T22:08:57.123Z,77.5
2017-09-03T22:09:58.488Z,77.3
2017-09-03T22:10:59.870Z,77.1
2017-09-03T22:12:01.528Z,77.5
2017-09-03T22:13:02.977Z,77.3
2017-09-03T22:14:04.452Z,78.1
2017-09-03T22:15:05.825Z,77.8
2017-09-03T22:16:07.352Z,77.5
2017-09-03T22:17:08.729Z,77.9
2017-09-03T22:18:10.366Z,78.1
2017-09-03T22:19:11.797Z,77.6
2017-09-03T22:20:13.218Z,77.7
2017-09-03T22:21:14.627Z,78.1
2017-09-03T22:22:16.006Z,77.9
2017-09-03T22:23:17.377Z,78.1
2017-09-03T22:24:18.748Z,78.3
2017-09-03T22:25:20.146Z,78.0
2017-09-03T22:26:21.581Z,78.3
2017-09-03T22:27:22.951Z,78.4
2017-09-03T22:29:05.319Z,78.4
2017-09-03T22:30:06.733Z,78.7
2017-09-03T22:31:08.102Z,78.8
2017-09-03T22:32:09.483Z,78.7
2017-09-03T22:33:10.855Z,78.5
2017-09-03T22:34:12.232Z,78.5
2017-09-03T22:35:13.609Z,79.0
2017-09-03T22:36:14.978Z,79.0
2017-09-03T22:37:16.353Z,78.7
2017-09-03T22:38:17.718Z,78.7
2017-09-03T22:39:19.093Z,78.2
2017-09-03T22:40:20.471Z,78.7
2017-09-03T22:41:21.848Z,78.4
2017-09-03T22:42:23.218Z,78.1
2017-09-03T22:43:24.590Z,78.3
2017-09-03T22:45:07.121Z,78.3
2017-09-03T22:46:08.495Z,78.0
2017-09-03T22:47:09.861Z,78.1
2017-09-03T22:48:11.332Z,78.1
2017-09-03T22:49:12.706Z,78.1
2017-09-03T22:50:14.081Z,78.1
2017-09-03T22:51:15.459Z,78.4
2017-09-03T22:52:16.838Z,78.0
2017-09-03T22:53:18.208Z,77.8
2017-09-03T22:54:19.580Z,77.9
2017-09-03T22:55:20.948Z,78.0
2017-09-03T22:56:22.534Z,77.8
2017-09-03T22:57:24.195Z,77.8
2017-09-03T22:58:25.838Z,77.6
2017-09-03T22:59:27.399Z,77.9
2017-09-03T23:00:28.802Z,77.1
2017-09-03T23:01:30.170Z,77.6
2017-09-03T23:02:31.728Z,77.5
2017-09-03T23:03:33.103Z,77.5
2017-09-03T23:04:34.477Z,77.7
2017-09-03T23:05:35.868Z,76.9
2017-09-03T23:06:37.258Z,76.8
2017-09-03T23:07:38.741Z,77.2
2017-09-03T23:08:40.248Z,76.9
2017-09-03T23:09:41.728Z,76.3
2017-09-03T23:10:43.205Z,76.5
2017-09-03T23:11:44.574Z,76.6
2017-09-03T23:12:45.955Z,76.3
2017-09-03T23:13:47.406Z,76.8
2017-09-03T23:14:48.790Z,76.2
2017-09-03T23:15:50.253Z,76.6
2017-09-03T23:17:32.634Z,76.6
2017-09-03T23:18:34.006Z,76.6
2017-09-03T23:19:35.374Z,76.7
2017-09-03T23:20:36.748Z,76.4
2017-09-03T23:21:38.113Z,76.4
2017-09-03T23:22:39.501Z,76.2
2017-09-03T23:23:41.277Z,76.2
2017-09-03T23:24:43.193Z,76.6
2017-09-03T23:25:44.743Z,76.8
2017-09-03T23:26:46.173Z,76.7
2017-09-03T23:27:47.532Z,76.7
2017-09-03T23:28:48.987Z,77.1
2017-09-03T23:29:50.362Z,77.3
2017-09-03T23:30:51.744Z,77.3
2017-09-03T23:31:53.116Z,77.1
2017-09-03T23:33:35.471Z,77.1
2017-09-03T23:34:36.839Z,77.7
2017-09-03T23:35:38.264Z,76.6
2017-09-03T23:36:39.634Z,77.5
2017-09-03T23:37:41.003Z,76.8
2017-09-03T23:38:42.376Z,77.2
2017-09-03T23:39:43.746Z,77.6
2017-09-03T23:40:45.119Z,76.9
2017-09-03T23:41:46.489Z,76.9
2017-09-03T23:42:47.857Z,77.5
2017-09-03T23:43:49.227Z,76.8
2017-09-03T23:44:50.598Z,76.7
2017-09-03T23:45:51.979Z,77.6
2017-09-03T23:46:53.350Z,77.8
2017-09-03T23:47:54.755Z,77.3
2017-09-03T23:48:56.098Z,77.7
2017-09-03T23:49:57.465Z,78.1
2017-09-03T23:50:58.839Z,78.2
2017-09-03T23:52:00.211Z,77.8
2017-09-03T23:53:01.578Z,77.9
2017-09-03T23:54:02.965Z,78.4
2017-09-03T23:55:04.340Z,78.9
2017-09-03T23:56:05.863Z,78.8
2017-09-03T23:57:07.264Z,78.8
2017-09-03T23:58:08.639Z,79.0
2017-09-03T23:59:10.016Z,79.5
